Time;durP1;ratioP1;P1;durP2;ratioP2;P2;SDS_P1;SDS_P2;PMS_P1;PMS_P2;Temp;Humidity;BMP_temperature;BMP_pressure;BME280_temperature;BME280_humidity;BME280_pressure;Samples;Min_cycle;Max_cycle;Signal;HPM_P1;HPM_P2
2021/10/02 00:41:17;;;;;;;;;;;;;;;18.77;48.99;101733.03;5094841;28;20350;-59
2021/10/02 00:46:30;;;;;;;;;;;;;;;18.80;49.08;101736.44;5094417;28;19970;-59
2021/10/02 00:48:57;;;;;;;;;;;;;;;18.73;49.31;101736.88;5094652;28;19924;-59
2021/10/02 00:51:23;;;;;;;;;;;;;;;18.72;49.30;101737.00;5094453;28;20391;-59
2021/10/02 00:53:50;;;;;;;;;;;;;;;18.69;49.63;101732.78;5094113;28;19924;-59
2021/10/02 00:56:16;;;;;;;;;;;;;;;18.66;49.90;101726.84;5094345;28;19951;-59
2021/10/02 00:58:49;;;;;;;;;;;;;;;18.65;49.78;101723.34;5094266;28;19985;-59
2021/10/02 01:01:22;;;;;;;;;;;;;;;18.65;49.86;101722.47;5093908;28;19924;-59
2021/10/02 01:03:56;;;;;;;;;;;;;;;18.67;49.49;101728.53;5094012;28;19969;-59
2021/10/02 01:06:46;;;;;;;;;;;;;;;18.64;49.99;101720.78;5094131;28;19925;-59
2021/10/02 01:09:18;;;;;;;;;;;;;;;18.60;49.63;101722.81;5094036;28;19933;-59
2021/10/02 01:11:51;;;;;;;;;;;;;;;18.57;49.93;101717.75;5094251;28;19935;-59
2021/10/02 01:14:25;;;;;;;;;;;;;;;18.54;50.06;101710.84;5079432;28;19924;-59
2021/10/02 01:16:54;;;;;;;;;;;;;;;18.53;50.10;101711.78;5093991;28;20319;-59
2021/10/02 01:19:21;;;;;;;;;;;;;;;18.51;50.03;101705.78;5093886;28;19924;-59
2021/10/02 01:21:50;;;;;;;;;;;;;;;18.50;50.12;101711.19;5085777;28;20291;-59
2021/10/02 01:24:32;;;;;;;;;;;;;;;18.51;50.34;101710.22;5091986;28;20018;-59
2021/10/02 01:27:16;;;;;;;;;;;;;;;18.53;49.89;101708.31;5093971;28;19924;-59
2021/10/02 01:29:44;;;;;;;;;;;;;;;18.45;50.15;101703.56;5093440;28;19924;-59
2021/10/02 01:32:21;;;;;;;;;;;;;;;18.40;50.65;101703.91;5093404;28;20384;-59
2021/10/02 01:35:15;;;;;;;;;;;;;;;18.37;50.58;101695.31;5092908;28;19932;-59
2021/10/02 01:48:41;;;;;;;;;;;;;;;18.31;50.70;101691.31;5092595;28;19924;-59
2021/10/02 01:51:10;;;;;;;;;;;;;;;18.26;50.75;101690.81;5093404;28;20015;-59
2021/10/02 01:53:38;;;;;;;;;;;;;;;18.25;50.67;101689.09;5093115;28;19931;-59
2021/10/02 01:56:06;;;;;;;;;;;;;;;18.22;50.68;101690.19;5093317;28;19933;-59
2021/10/02 01:58:33;;;;;;;;;;;;;;;18.23;50.69;101685.69;5093370;28;20348;-59
2021/10/02 02:01:02;;;;;;;;;;;;;;;18.17;50.72;101691.47;5093251;28;19924;-59
2021/10/02 02:03:33;;;;;;;;;;;;;;;18.05;51.20;101683.44;5092975;28;19924;-59
2021/10/02 02:06:01;;;;;;;;;;;;;;;17.97;51.43;101682.31;5080395;28;19932;-59
2021/10/02 02:08:28;;;;;;;;;;;;;;;17.94;51.45;101680.72;5093213;28;19924;-59
2021/10/02 02:11:15;;;;;;;;;;;;;;;17.88;52.16;101675.84;5093135;28;20015;-59
2021/10/02 02:13:41;;;;;;;;;;;;;;;17.83;52.04;101672.69;5093003;28;19924;-58
2021/10/02 02:16:08;;;;;;;;;;;;;;;17.77;52.44;101672.13;5092633;28;20319;-59
2021/10/02 02:18:35;;;;;;;;;;;;;;;17.73;52.34;101670.69;5092742;28;19993;-59
2021/10/02 02:21:04;;;;;;;;;;;;;;;17.68;52.85;101672.81;5091224;28;19924;-59
2021/10/02 02:23:31;;;;;;;;;;;;;;;17.73;52.75;101672.50;5080685;28;19924;-59
2021/10/02 02:26:04;;;;;;;;;;;;;;;17.74;52.46;101667.06;5092108;28;19931;-59
2021/10/02 02:28:40;;;;;;;;;;;;;;;17.72;52.53;101668.13;5092810;28;20376;-59
2021/10/02 02:31:08;;;;;;;;;;;;;;;17.72;52.80;101665.47;5091624;28;19975;-59
2021/10/02 02:33:35;;;;;;;;;;;;;;;17.71;52.83;101662.00;5092231;28;20006;-59
2021/10/02 02:36:03;;;;;;;;;;;;;;;17.71;52.63;101656.69;5092722;28;19977;-59
2021/10/02 02:38:30;;;;;;;;;;;;;;;17.71;52.51;101664.66;5092671;28;19977;-59
2021/10/02 02:40:57;;;;;;;;;;;;;;;17.71;52.86;101656.69;5093067;28;19928;-59
2021/10/02 02:43:28;;;;;;;;;;;;;;;17.71;52.85;101654.03;5092717;28;19977;-59
2021/10/02 02:45:57;;;;;;;;;;;;;;;17.72;52.90;101649.56;5092479;28;19924;-59
2021/10/02 02:48:26;;;;;;;;;;;;;;;17.73;52.69;101654.75;5091678;28;19932;-59
2021/10/02 02:50:59;;;;;;;;;;;;;;;17.69;52.98;101650.63;5092586;28;19928;-59
2021/10/02 02:53:47;;;;;;;;;;;;;;;17.70;52.71;101657.63;5092466;28;19924;-59
2021/10/02 02:56:23;;;;;;;;;;;;;;;17.68;52.62;101654.22;5092439;28;19924;-59
2021/10/02 02:58:51;;;;;;;;;;;;;;;17.67;52.87;101657.84;5092305;28;19950;-59
2021/10/02 03:01:21;;;;;;;;;;;;;;;17.68;52.90;101653.41;5092478;28;19928;-59
2021/10/02 03:03:50;;;;;;;;;;;;;;;17.68;52.57;101646.28;5086265;28;20299;-59
2021/10/02 03:06:18;;;;;;;;;;;;;;;17.65;52.85;101641.19;5079355;28;19973;-59
2021/10/02 03:08:46;;;;;;;;;;;;;;;17.65;52.75;101635.88;5089106;28;19954;-59
2021/10/02 03:11:17;;;;;;;;;;;;;;;17.67;52.57;101636.59;5089299;28;19928;-59
2021/10/02 03:13:44;;;;;;;;;;;;;;;17.63;52.83;101637.78;5088579;28;19928;-59
2021/10/02 03:16:11;;;;;;;;;;;;;;;17.62;52.63;101636.09;5088792;28;20376;-59
2021/10/02 03:18:41;;;;;;;;;;;;;;;17.59;53.04;101634.50;5088914;28;20007;-59
2021/10/02 03:21:11;;;;;;;;;;;;;;;17.53;52.93;101639.41;5072683;28;19924;-60
2021/10/02 03:23:38;;;;;;;;;;;;;;;17.51;53.29;101646.63;5077914;28;19952;-59
2021/10/02 03:26:05;;;;;;;;;;;;;;;17.49;53.47;101644.09;5088891;28;19978;-59
2021/10/02 03:28:32;;;;;;;;;;;;;;;17.45;53.30;101635.50;5088508;28;19924;-59
2021/10/02 03:30:59;;;;;;;;;;;;;;;17.41;53.70;101641.16;5088483;28;19924;-59
2021/10/02 03:33:26;;;;;;;;;;;;;;;17.39;53.75;101643.91;5088749;28;20449;-59
2021/10/02 03:35:53;;;;;;;;;;;;;;;17.37;53.96;101639.66;5089389;28;20364;-59
2021/10/02 03:38:21;;;;;;;;;;;;;;;17.33;54.01;101631.09;5092142;28;20395;-59
2021/10/02 03:40:48;;;;;;;;;;;;;;;17.31;54.14;101638.31;5092369;28;19928;-58
2021/10/02 03:43:15;;;;;;;;;;;;;;;17.27;53.94;101632.34;5092483;28;20046;-59
2021/10/02 03:45:41;;;;;;;;;;;;;;;17.24;54.15;101635.25;5091594;28;19924;-59
2021/10/02 03:48:08;;;;;;;;;;;;;;;17.26;53.85;101629.81;5092645;28;19943;-59
2021/10/02 03:50:34;;;;;;;;;;;;;;;17.27;54.20;101626.22;5092322;28;20384;-59
2021/10/02 03:53:01;;;;;;;;;;;;;;;17.26;54.28;101635.13;5092160;28;19931;-59
2021/10/02 03:55:28;;;;;;;;;;;;;;;17.23;54.35;101620.28;5091951;28;19986;-59
2021/10/02 03:57:54;;;;;;;;;;;;;;;17.21;54.34;101629.31;5092094;28;19928;-59
2021/10/02 04:00:21;;;;;;;;;;;;;;;17.19;54.32;101626.78;5091864;28;19955;-59
2021/10/02 04:02:48;;;;;;;;;;;;;;;17.17;54.44;101633.13;5091473;28;20394;-59
2021/10/02 04:05:15;;;;;;;;;;;;;;;17.11;54.78;101632.59;5091720;28;19928;-59
2021/10/02 04:07:41;;;;;;;;;;;;;;;17.10;54.65;101638.00;5091939;28;19932;-59
2021/10/02 04:10:08;;;;;;;;;;;;;;;17.07;54.79;101632.94;5092055;28;19931;-59
2021/10/02 04:12:34;;;;;;;;;;;;;;;17.06;54.87;101631.22;5091664;28;19924;-59
2021/10/02 04:15:01;;;;;;;;;;;;;;;17.04;54.90;101630.47;5091576;28;19971;-59
2021/10/02 04:17:28;;;;;;;;;;;;;;;17.03;54.73;101626.16;5091531;28;19924;-59
2021/10/02 04:19:54;;;;;;;;;;;;;;;17.04;54.93;101619.88;5091777;28;19924;-59
2021/10/02 04:22:21;;;;;;;;;;;;;;;17.04;54.91;101618.09;5079109;28;20384;-59
2021/10/02 04:24:48;;;;;;;;;;;;;;;17.00;54.93;101616.59;5089819;28;19924;-59
2021/10/02 04:27:15;;;;;;;;;;;;;;;16.96;55.01;101618.63;5091897;28;19924;-59
2021/10/02 04:29:42;;;;;;;;;;;;;;;16.99;55.15;101614.91;5090746;28;20391;-59
2021/10/02 04:32:08;;;;;;;;;;;;;;;16.96;55.07;101620.41;5091787;28;19928;-59
2021/10/02 04:34:35;;;;;;;;;;;;;;;16.96;54.97;101620.41;5091439;28;20283;-59
2021/10/02 04:37:02;;;;;;;;;;;;;;;16.95;55.18;101616.06;5091605;28;19928;-59
2021/10/02 04:39:28;;;;;;;;;;;;;;;16.95;55.21;101614.25;5091457;28;19924;-59
2021/10/02 04:41:55;;;;;;;;;;;;;;;16.96;55.14;101615.97;5091299;28;20499;-59
2021/10/02 04:44:22;;;;;;;;;;;;;;;16.94;55.31;101617.88;5091075;28;19924;-59
2021/10/02 04:46:48;;;;;;;;;;;;;;;16.91;55.20;101619.88;5090670;28;19927;-59
2021/10/02 04:49:15;;;;;;;;;;;;;;;16.91;55.40;101626.03;5087381;28;19939;-59
2021/10/02 04:51:42;;;;;;;;;;;;;;;16.90;55.41;101620.78;5086837;28;19953;-59
2021/10/02 04:54:09;;;;;;;;;;;;;;;16.88;55.46;101622.72;5091045;28;19924;-59
2021/10/02 04:56:36;;;;;;;;;;;;;;;16.88;55.41;101622.72;5090825;28;19931;-59
2021/10/02 04:59:02;;;;;;;;;;;;;;;16.85;55.49;101628.22;5091150;28;20378;-59
2021/10/02 05:01:29;;;;;;;;;;;;;;;16.81;55.46;101627.56;5091177;28;19966;-59
2021/10/02 05:03:57;;;;;;;;;;;;;;;16.78;55.41;101622.50;5090954;28;19924;-59
2021/10/02 05:06:23;;;;;;;;;;;;;;;16.76;55.65;101627.06;5090260;28;19924;-59
2021/10/02 05:08:50;;;;;;;;;;;;;;;16.76;55.52;101629.69;5090554;28;20376;-59
2021/10/02 05:11:17;;;;;;;;;;;;;;;16.76;55.36;101629.69;5090752;28;19942;-59
2021/10/02 05:13:43;;;;;;;;;;;;;;;16.79;55.32;101632.16;5089197;28;20338;-59
2021/10/02 05:16:10;;;;;;;;;;;;;;;16.83;55.53;101640.75;5090358;28;20376;-59
2021/10/02 05:18:37;;;;;;;;;;;;;;;16.83;55.26;101635.44;5090880;28;20378;-59
2021/10/02 05:21:04;;;;;;;;;;;;;;;16.85;55.35;101630.88;5088503;28;19924;-59
2021/10/02 05:23:30;;;;;;;;;;;;;;;16.84;55.29;101631.84;5078007;28;19928;-59
2021/10/02 05:25:57;;;;;;;;;;;;;;;16.80;55.33;101636.50;5090337;28;19934;-59
2021/10/02 05:28:24;;;;;;;;;;;;;;;16.84;55.29;101637.16;5090626;28;19931;-59
2021/10/02 05:30:50;;;;;;;;;;;;;;;16.80;55.35;101640.00;5088828;28;19928;-59
2021/10/02 05:33:17;;;;;;;;;;;;;;;16.80;55.48;101642.66;5088693;28;19941;-59
2021/10/02 05:35:45;;;;;;;;;;;;;;;16.80;55.45;101641.81;5089953;28;19931;-59
2021/10/02 05:38:13;;;;;;;;;;;;;;;16.83;55.57;101646.06;5089727;28;19939;-59
2021/10/02 05:40:52;;;;;;;;;;;;;;;16.87;55.66;101636.94;5090217;28;20397;-59
2021/10/02 05:43:21;;;;;;;;;;;;;;;16.91;55.50;101641.97;5089491;28;19931;-59
2021/10/02 05:45:47;;;;;;;;;;;;;;;16.93;55.56;101647.16;5090340;28;19924;-59
2021/10/02 05:48:14;;;;;;;;;;;;;;;16.97;55.29;101641.50;5076784;28;19987;-59
2021/10/02 05:50:41;;;;;;;;;;;;;;;17.04;55.61;101649.03;5089633;28;19931;-59
2021/10/02 05:53:07;;;;;;;;;;;;;;;17.10;55.16;101654.78;5089756;28;20372;-59
2021/10/02 05:55:34;;;;;;;;;;;;;;;17.13;55.34;101649.25;5089935;28;20280;-59
2021/10/02 05:58:00;;;;;;;;;;;;;;;17.16;55.25;101658.78;5090069;28;20376;-59
2021/10/02 06:00:27;;;;;;;;;;;;;;;17.19;55.26;101660.38;5089300;28;19936;-58
2021/10/02 06:02:56;;;;;;;;;;;;;;;17.21;54.90;101664.63;5089545;28;19924;-59
2021/10/02 06:05:26;;;;;;;;;;;;;;;17.26;55.19;101656.34;5089351;28;19925;-59
2021/10/02 06:07:54;;;;;;;;;;;;;;;17.29;55.27;101664.94;5088606;28;19924;-59
2021/10/02 06:10:20;;;;;;;;;;;;;;;17.29;55.39;101664.09;5089332;28;19924;-59
2021/10/02 06:12:47;;;;;;;;;;;;;;;17.26;55.60;101659.00;5089572;28;19923;-59
2021/10/02 06:15:13;;;;;;;;;;;;;;;17.20;55.90;101667.38;5089445;28;19928;-59
2021/10/02 06:17:40;;;;;;;;;;;;;;;17.20;56.23;101665.56;5089383;28;20296;-59
2021/10/02 06:20:07;;;;;;;;;;;;;;;17.23;55.85;101664.50;5089454;28;19928;-59
2021/10/02 06:22:33;;;;;;;;;;;;;;;17.23;56.10;101668.03;5075041;28;19924;-59
2021/10/02 06:25:00;;;;;;;;;;;;;;;17.20;56.33;101670.03;5089488;28;19931;-59
2021/10/02 06:27:26;;;;;;;;;;;;;;;17.23;56.45;101665.38;5089508;28;19993;-59
2021/10/02 06:29:53;;;;;;;;;;;;;;;17.23;56.65;101670.69;5089006;28;19935;-59
2021/10/02 06:32:19;;;;;;;;;;;;;;;17.27;56.50;101669.50;5089570;28;19928;-59
2021/10/02 06:34:46;;;;;;;;;;;;;;;17.30;56.58;101668.44;5088597;28;19977;-59
2021/10/02 06:37:12;;;;;;;;;;;;;;;17.39;56.63;101670.44;5089008;28;20327;-59
2021/10/02 06:39:39;;;;;;;;;;;;;;;17.44;56.60;101665.63;5089319;28;20433;-59
2021/10/02 06:42:05;;;;;;;;;;;;;;;17.50;56.50;101668.84;5089539;28;19931;-59
2021/10/02 06:44:32;;;;;;;;;;;;;;;17.56;56.19;101665.72;5088901;28;20273;-59
2021/10/02 06:46:58;;;;;;;;;;;;;;;17.69;56.16;101671.88;5088975;28;19932;-59
2021/10/02 06:49:28;;;;;;;;;;;;;;;17.78;56.11;101665.88;5089024;28;19928;-59
2021/10/02 06:51:54;;;;;;;;;;;;;;;17.87;55.62;101676.81;5088167;28;19978;-59
2021/10/02 06:54:21;;;;;;;;;;;;;;;17.95;55.60;101685.94;5089228;28;19930;-59
2021/10/02 06:56:47;;;;;;;;;;;;;;;18.08;55.90;101679.72;5088595;28;19970;-60
2021/10/02 06:59:14;;;;;;;;;;;;;;;18.04;55.59;101680.91;5089075;28;19978;-61
2021/10/02 07:01:42;;;;;;;;;;;;;;;17.98;55.94;101682.22;5088639;28;19931;-58
2021/10/02 07:04:09;;;;;;;;;;;;;;;18.17;55.49;101680.84;5089226;28;19950;-58
2021/10/02 07:06:54;;;;;;;;;;;;;;;18.31;55.49;101678.03;5088467;28;19977;-61
2021/10/02 07:09:20;;;;;;;;;;;;;;;18.56;54.63;101670.84;5088966;28;19924;-60
2021/10/02 07:11:47;;;;;;;;;;;;;;;18.81;54.01;101676.97;5073653;28;20372;-60
2021/10/02 07:14:13;;;;;;;;;;;;;;;18.97;53.86;101672.19;5073798;28;19924;-59
2021/10/02 07:16:40;;;;;;;;;;;;;;;19.02;53.34;101671.81;5082890;28;19924;-58
2021/10/02 07:19:07;;;;;;;;;;;;;;;19.17;53.38;101664.44;5077397;28;19924;-58
2021/10/02 07:21:33;;;;;;;;;;;;;;;19.34;52.78;101666.63;5082356;28;20253;-58
2021/10/02 07:24:00;;;;;;;;;;;;;;;19.55;51.96;101673.88;5085367;28;20364;-59
2021/10/02 07:26:26;;;;;;;;;;;;;;;19.72;51.57;101675.19;5074097;28;19928;-59
2021/10/02 07:28:53;;;;;;;;;;;;;;;19.78;51.38;101679.16;5073461;28;19929;-62
2021/10/02 07:31:20;;;;;;;;;;;;;;;19.78;51.09;101681.81;5075294;28;19931;-62
2021/10/02 07:33:48;;;;;;;;;;;;;;;19.80;51.33;101675.41;5073189;28;19925;-59
2021/10/02 07:36:16;;;;;;;;;;;;;;;19.98;50.70;101674.91;5073288;28;19928;-61
2021/10/02 07:38:44;;;;;;;;;;;;;;;20.19;49.99;101666.97;5072700;28;20407;-60
2021/10/02 07:41:12;;;;;;;;;;;;;;;20.37;49.46;101665.41;5072292;28;19966;-61
2021/10/02 07:43:42;;;;;;;;;;;;;;;20.51;49.19;101652.75;5074195;28;19928;-61
2021/10/02 07:46:09;;;;;;;;;;;;;;;20.61;48.93;101651.00;5074207;28;19928;-61
2021/10/02 07:48:38;;;;;;;;;;;;;;;20.81;48.83;101659.13;5075219;28;20015;-61
2021/10/02 07:51:05;;;;;;;;;;;;;;;20.94;48.42;101651.78;5073290;28;19999;-61
2021/10/02 07:53:32;;;;;;;;;;;;;;;21.07;47.97;101656.06;5075378;28;19951;-60
2021/10/02 07:55:59;;;;;;;;;;;;;;;21.18;48.21;101653.31;5073462;28;19924;-61
2021/10/02 07:58:26;;;;;;;;;;;;;;;21.32;47.66;101660.94;5074443;28;19970;-61
2021/10/02 08:00:53;;;;;;;;;;;;;;;21.43;47.35;101659.13;5072788;28;19948;-61
2021/10/02 08:03:20;;;;;;;;;;;;;;;21.56;47.31;101665.13;5072455;28;20042;-61
2021/10/02 08:05:48;;;;;;;;;;;;;;;21.61;47.08;101660.22;5071593;28;19924;-61
2021/10/02 08:08:16;;;;;;;;;;;;;;;21.69;47.21;101654.19;5071572;28;19928;-61
2021/10/02 08:10:47;;;;;;;;;;;;;;;21.76;46.67;101655.31;5075641;28;20366;-61
2021/10/02 08:13:14;;;;;;;;;;;;;;;21.91;46.35;101654.91;5085566;28;19954;-61
2021/10/02 08:15:42;;;;;;;;;;;;;;;22.05;46.06;101657.16;5089455;28;19970;-61
2021/10/02 08:18:11;;;;;;;;;;;;;;;22.22;45.78;101654.78;5091756;28;19924;-62
2021/10/02 08:20:39;;;;;;;;;;;;;;;22.35;45.40;101658.00;5087839;28;19924;-62
2021/10/02 08:23:06;;;;;;;;;;;;;;;22.50;45.21;101653.13;5071437;28;19927;-61
2021/10/02 08:25:32;;;;;;;;;;;;;;;22.62;44.80;101653.78;5072184;28;19928;-61
2021/10/02 08:27:59;;;;;;;;;;;;;;;22.74;44.61;101654.44;5073357;28;19993;-61
2021/10/02 08:30:26;;;;;;;;;;;;;;;22.90;44.34;101648.50;5072042;28;19974;-60
2021/10/02 08:32:52;;;;;;;;;;;;;;;23.07;43.93;101644.19;5071686;28;19932;-61
2021/10/02 08:35:19;;;;;;;;;;;;;;;23.16;43.65;101635.34;5070834;28;20288;-60
2021/10/02 08:37:45;;;;;;;;;;;;;;;23.31;43.39;101632.97;5074388;28;19924;-60
2021/10/02 08:40:14;;;;;;;;;;;;;;;23.39;43.06;101632.22;5076969;28;19924;-60
2021/10/02 08:42:41;;;;;;;;;;;;;;;23.56;42.86;101634.13;5071314;28;19925;-61
2021/10/02 08:45:09;;;;;;;;;;;;;;;23.76;42.52;101631.31;5089197;28;19928;-60
2021/10/02 08:47:37;;;;;;;;;;;;;;;23.97;42.04;101622.97;5091347;28;19924;-61
2021/10/02 08:50:04;;;;;;;;;;;;;;;24.15;41.74;101614.09;5091307;28;19931;-60
2021/10/02 08:52:31;;;;;;;;;;;;;;;24.24;41.54;101615.84;5091350;28;20386;-60
2021/10/02 08:54:59;;;;;;;;;;;;;;;24.39;41.38;101616.97;5090182;28;19924;-61
2021/10/02 08:57:26;;;;;;;;;;;;;;;24.47;41.06;101608.13;5077726;28;19924;-61
2021/10/02 08:59:54;;;;;;;;;;;;;;;24.67;40.74;101611.47;5090986;28;19925;-62
2021/10/02 09:02:23;;;;;;;;;;;;;;;24.80;40.73;101611.06;5073560;28;20381;-61
2021/10/02 09:04:50;;;;;;;;;;;;;;;24.96;40.25;101604.06;5071976;28;19960;-61
2021/10/02 09:07:19;;;;;;;;;;;;;;;25.13;39.92;101604.97;5074227;28;20007;-62
2021/10/02 09:09:47;;;;;;;;;;;;;;;25.29;39.55;101601.50;5072820;28;19951;-61
2021/10/02 09:12:22;;;;;;;;;;;;;;;25.43;39.26;101595.53;5074293;28;19925;-60
2021/10/02 09:14:52;;;;;;;;;;;;;;;25.61;38.94;101597.25;5080850;28;19931;-60
2021/10/02 09:17:19;;;;;;;;;;;;;;;25.73;38.69;101606.69;5081775;28;19932;-61
2021/10/02 09:19:46;;;;;;;;;;;;;;;25.89;38.42;101598.63;5073727;28;19924;-61
2021/10/02 09:22:14;;;;;;;;;;;;;;;25.99;38.28;101606.53;5071657;28;19936;-61
2021/10/02 09:24:45;;;;;;;;;;;;;;;26.10;38.13;101616.13;5070753;28;19924;-64
2021/10/02 09:27:17;;;;;;;;;;;;;;;26.10;38.18;101621.50;5080771;28;20333;-61
2021/10/02 09:29:46;;;;;;;;;;;;;;;26.15;37.86;101629.09;5089386;28;19924;-62
2021/10/02 09:32:15;;;;;;;;;;;;;;;26.23;37.70;101629.06;5090384;28;19928;-61
2021/10/02 09:34:46;;;;;;;;;;;;;;;26.35;37.60;101625.03;5089651;28;19924;-62
2021/10/02 09:37:19;;;;;;;;;;;;;;;26.45;37.39;101615.94;5089838;28;19924;-61
2021/10/02 09:39:45;;;;;;;;;;;;;;;26.57;37.18;101619.97;5090087;28;19977;-59
2021/10/02 09:42:20;;;;;;;;;;;;;;;26.70;37.23;101624.81;5081207;28;19934;-58
2021/10/02 09:44:47;;;;;;;;;;;;;;;26.78;36.86;101626.66;5074725;28;20385;-58
2021/10/02 09:47:15;;;;;;;;;;;;;;;26.94;36.57;101632.00;5071736;28;19924;-58
2021/10/02 09:49:43;;;;;;;;;;;;;;;26.98;36.55;101635.19;5071128;28;19970;-57
2021/10/02 09:52:29;;;;;;;;;;;;;;;26.93;36.33;101638.41;5072823;28;19925;-60
2021/10/02 09:54:55;;;;;;;;;;;;;;;27.01;36.48;101634.84;5074389;28;19924;-60
2021/10/02 09:57:23;;;;;;;;;;;;;;;27.09;36.33;101644.75;5071054;28;20324;-60
2021/10/02 09:59:50;;;;;;;;;;;;;;;27.22;36.09;101639.63;5070302;28;19975;-60
2021/10/02 10:02:18;;;;;;;;;;;;;;;27.32;35.66;101640.25;5071816;28;20430;-60
2021/10/02 10:04:52;;;;;;;;;;;;;;;27.36;35.69;101644.28;5075194;28;19968;-62
2021/10/02 10:07:20;;;;;;;;;;;;;;;27.40;35.70;101650.22;5077602;28;19967;-59
2021/10/02 10:09:59;;;;;;;;;;;;;;;27.62;35.08;101647.72;5076075;28;19954;-61
2021/10/02 10:12:26;;;;;;;;;;;;;;;27.66;34.96;101647.19;5068741;28;19925;-61
2021/10/02 10:14:53;;;;;;;;;;;;;;;27.82;34.78;101651.63;5071146;28;20018;-59
2021/10/02 10:17:19;;;;;;;;;;;;;;;27.77;34.74;101645.94;5071152;28;20319;-59
2021/10/02 10:19:46;;;;;;;;;;;;;;;27.86;34.74;101650.25;5070888;28;20428;-59
2021/10/02 10:22:16;;;;;;;;;;;;;;;27.92;34.61;101639.75;5072737;28;19995;-59
2021/10/02 10:24:51;;;;;;;;;;;;;;;27.98;34.72;101637.16;5073726;28;19928;-59
2021/10/02 10:27:38;;;;;;;;;;;;;;;28.00;34.40;101640.53;5070473;28;19931;-59
2021/10/02 10:30:04;;;;;;;;;;;;;;;28.14;34.13;101643.50;5069800;28;19928;-59
2021/10/02 10:32:31;;;;;;;;;;;;;;;28.32;33.81;101635.91;5071020;28;20447;-59
2021/10/02 10:34:58;;;;;;;;;;;;;;;28.08;34.04;101642.34;5069870;28;19925;-59
2021/10/02 10:37:25;;;;;;;;;;;;;;;28.17;33.94;101649.34;5068847;28;20376;-59
2021/10/02 10:39:57;;;;;;;;;;;;;;;28.20;33.69;101645.44;5068865;28;19932;-59
2021/10/02 10:42:27;;;;;;;;;;;;;;;28.30;33.62;101645.22;5070077;28;19931;-59
2021/10/02 10:44:55;;;;;;;;;;;;;;;28.52;33.18;101651.59;5070907;28;19928;-60
2021/10/02 10:47:23;;;;;;;;;;;;;;;28.61;33.10;101649.66;5076407;28;20380;-59
2021/10/02 10:49:50;;;;;;;;;;;;;;;28.64;33.05;101641.16;5075372;28;20415;-59
2021/10/02 10:52:18;;;;;;;;;;;;;;;28.71;32.92;101631.34;5079811;28;20373;-59
2021/10/02 10:54:45;;;;;;;;;;;;;;;28.86;32.68;101630.50;5075589;28;19989;-59
2021/10/02 10:57:30;;;;;;;;;;;;;;;28.69;32.91;101633.38;5072656;28;19972;-66
2021/10/02 10:59:57;;;;;;;;;;;;;;;28.74;32.66;101636.34;5086222;28;19924;-59
2021/10/02 11:02:52;;;;;;;;;;;;;;;28.78;32.67;101628.72;5091255;28;20457;-62
2021/10/02 11:05:35;;;;;;;;;;;;;;;28.87;32.69;101629.47;5069664;28;19936;-61
2021/10/02 11:08:07;;;;;;;;;;;;;;;28.73;32.26;101623.03;5085653;28;20387;-59
2021/10/02 11:10:42;;;;;;;;;;;;;;;28.88;32.41;101609.53;5090669;28;19928;-59
2021/10/02 11:13:10;;;;;;;;;;;;;;;29.03;32.15;101602.25;5079521;28;20400;-61
2021/10/02 11:15:36;;;;;;;;;;;;;;;28.90;32.21;101596.66;5093076;28;19977;-60
2021/10/02 11:18:03;;;;;;;;;;;;;;;28.98;32.14;101604.69;5092320;28;19928;-60
2021/10/02 11:20:34;;;;;;;;;;;;;;;28.98;32.14;101602.81;5092510;28;20579;-59
2021/10/02 11:23:27;;;;;;;;;;;;;;;28.97;32.14;101597.59;5088346;28;20395;-61
2021/10/02 11:26:06;;;;;;;;;;;;;;;29.07;31.83;101591.91;5085908;28;19982;-60
2021/10/02 11:28:32;;;;;;;;;;;;;;;29.25;31.92;101592.31;5079179;28;19928;-60
2021/10/02 11:30:59;;;;;;;;;;;;;;;29.22;31.83;101595.41;5092105;28;20384;-60
2021/10/02 11:33:40;;;;;;;;;;;;;;;29.25;32.01;101588.78;5077136;28;19939;-61
2021/10/02 11:36:25;;;;;;;;;;;;;;;29.27;31.86;101578.63;5072200;28;19925;-62
2021/10/02 11:39:08;;;;;;;;;;;;;;;29.33;31.62;101583.28;5071520;28;19932;-61
2021/10/02 11:41:39;;;;;;;;;;;;;;;29.41;31.76;101580.47;5072686;28;19954;-60
2021/10/02 11:44:06;;;;;;;;;;;;;;;29.38;31.79;101578.16;5072089;28;19925;-60
2021/10/02 11:46:32;;;;;;;;;;;;;;;29.13;32.02;101578.47;5086288;28;20293;-60
2021/10/02 11:49:18;;;;;;;;;;;;;;;29.34;31.81;101563.31;5092289;28;20014;-60
2021/10/02 11:52:03;;;;;;;;;;;;;;;29.49;31.21;101568.69;5092008;28;19932;-60
2021/10/02 11:54:30;;;;;;;;;;;;;;;29.41;31.34;101561.53;5085798;28;19928;-60
2021/10/02 11:57:10;;;;;;;;;;;;;;;29.41;31.15;101558.00;5071457;28;19929;-60
2021/10/02 11:59:41;;;;;;;;;;;;;;;29.38;31.27;101556.53;5073109;28;19931;-62
2021/10/02 12:02:09;;;;;;;;;;;;;;;29.27;31.37;101560.53;5073811;28;19928;-59
2021/10/02 12:04:36;;;;;;;;;;;;;;;29.48;30.87;101558.91;5071195;28;19931;-59
2021/10/02 12:07:03;;;;;;;;;;;;;;;29.55;30.74;101548.97;5070500;28;19925;-60
2021/10/02 12:09:30;;;;;;;;;;;;;;;29.74;30.51;101549.38;5071548;28;20657;-60
2021/10/02 12:11:56;;;;;;;;;;;;;;;29.70;30.55;101550.78;5071517;28;20262;-59
2021/10/02 12:14:24;;;;;;;;;;;;;;;29.68;30.63;101547.44;5071575;28;19982;-59
2021/10/02 12:17:00;;;;;;;;;;;;;;;29.65;30.58;101541.38;5072640;28;19924;-61
2021/10/02 12:19:28;;;;;;;;;;;;;;;29.76;30.18;101533.75;5076244;28;19924;-60
2021/10/02 12:21:59;;;;;;;;;;;;;;;29.84;30.02;101527.38;5071810;28;19925;-60
2021/10/02 12:24:26;;;;;;;;;;;;;;;29.97;30.17;101527.50;5071891;28;19928;-60
2021/10/02 12:27:05;;;;;;;;;;;;;;;29.93;29.98;101510.84;5071972;28;20362;-59
2021/10/02 12:29:36;;;;;;;;;;;;;;;30.03;29.76;101507.78;5072156;28;20380;-61
2021/10/02 12:32:07;;;;;;;;;;;;;;;30.15;30.08;101504.53;5070829;28;19924;-60
2021/10/02 12:34:36;;;;;;;;;;;;;;;30.09;30.16;101498.03;5070491;28;19978;-61
2021/10/02 12:37:15;;;;;;;;;;;;;;;30.04;30.06;101503.19;5070110;28;19970;-59
2021/10/02 12:39:49;;;;;;;;;;;;;;;29.88;30.05;101499.75;5073417;28;20380;-60
2021/10/02 12:42:29;;;;;;;;;;;;;;;29.91;30.34;101501.25;5072371;28;21204;-63
2021/10/02 12:44:55;;;;;;;;;;;;;;;29.96;29.98;101506.91;5086451;28;19928;-59
2021/10/02 12:47:27;;;;;;;;;;;;;;;29.98;30.09;101502.13;5090781;28;19928;-60
2021/10/02 12:49:56;;;;;;;;;;;;;;;30.15;29.95;101502.66;5090575;28;19931;-61
2021/10/02 12:52:22;;;;;;;;;;;;;;;30.19;29.81;101500.38;5091119;28;20349;-60
2021/10/02 12:54:50;;;;;;;;;;;;;;;30.24;29.40;101506.03;5090711;28;19924;-61
2021/10/02 12:57:23;;;;;;;;;;;;;;;30.08;29.69;101504.47;5080711;28;19924;-59
2021/10/02 12:59:57;;;;;;;;;;;;;;;30.18;29.52;101509.53;5090682;28;20410;-63
2021/10/02 13:02:23;;;;;;;;;;;;;;;30.23;29.42;101498.94;5080143;28;20376;-60
2021/10/02 13:04:50;;;;;;;;;;;;;;;30.23;29.42;101494.38;5090388;28;19928;-60
2021/10/02 13:07:21;;;;;;;;;;;;;;;30.36;29.11;101490.03;5089768;28;20273;-60
2021/10/02 13:10:05;;;;;;;;;;;;;;;30.38;29.07;101485.28;5089442;28;19931;-59
2021/10/02 13:12:36;;;;;;;;;;;;;;;30.37;28.98;101476.34;5090053;28;20356;-60
2021/10/02 13:15:07;;;;;;;;;;;;;;;30.05;29.43;101478.63;5090421;28;19928;-60
2021/10/02 13:17:33;;;;;;;;;;;;;;;30.03;29.24;101474.44;5089885;28;19928;-60
2021/10/02 13:20:08;;;;;;;;;;;;;;;30.12;28.82;101473.28;5089735;28;19928;-60
2021/10/02 13:22:42;;;;;;;;;;;;;;;30.18;28.91;101467.03;5086635;28;19930;-63
2021/10/02 13:25:10;;;;;;;;;;;;;;;30.26;28.91;101464.19;5090453;28;20270;-61
2021/10/02 13:27:38;;;;;;;;;;;;;;;30.32;29.11;101461.72;5090257;28;20292;-61
2021/10/02 13:30:16;;;;;;;;;;;;;;;30.40;28.61;101458.84;5090220;28;20396;-61
2021/10/02 13:32:53;;;;;;;;;;;;;;;30.39;28.80;101455.28;5089802;28;20303;-61
2021/10/02 13:35:20;;;;;;;;;;;;;;;30.40;28.81;101453.44;5071021;28;19924;-60
2021/10/02 13:37:47;;;;;;;;;;;;;;;30.36;28.77;101453.00;5072749;28;19924;-60
2021/10/02 13:40:27;;;;;;;;;;;;;;;30.37;28.69;101445.69;5070573;28;19932;-60